Terminal Aerodrome Forecast
Issued by NWS Grand Forks, ND

Home | Current Version | Previous Version | Graphics & Text | Print | Product List | Glossary On
Versions: 1 2 3 4 5 6 7 8 9 10 11 12 13 14 15 16 17 18 19 20
000
FTUS43 KFGF 271916 AAA
TAFFAR
TAF AMD
KFAR 271916Z 2719/2818 15012KT P6SM SCT035
     FM272000 15013G18KT P6SM FEW040
     FM280200 14014KT P6SM SCT120
     FM281100 15014G18KT P6SM -TSRA BKN060CB
     FM281500 19016G25KT P6SM BKN080=

USA.gov is the U.S. government's official web portal to all federal, state and local government web resources and services.